sensor_id;sensor_type;location;lat;lon;timestamp;temperature;humidity
17296;DHT22;8766;51.480;6.872;2022-12-07T00:00:00;7.20;75.10
17296;DHT22;8766;51.480;6.872;2022-12-07T00:02:27;7.20;75.50
17296;DHT22;8766;51.480;6.872;2022-12-07T00:04:53;7.20;75.10
17296;DHT22;8766;51.480;6.872;2022-12-07T00:07:20;7.20;75.10
17296;DHT22;8766;51.480;6.872;2022-12-07T00:09:47;7.20;75.10
17296;DHT22;8766;51.480;6.872;2022-12-07T00:12:13;7.20;75.10
17296;DHT22;8766;51.480;6.872;2022-12-07T00:14:40;7.20;75.10
17296;DHT22;8766;51.480;6.872;2022-12-07T00:17:08;7.20;75.10
17296;DHT22;8766;51.480;6.872;2022-12-07T00:19:35;7.20;75.10
17296;DHT22;8766;51.480;6.872;2022-12-07T00:22:02;7.40;75.20
17296;DHT22;8766;51.480;6.872;2022-12-07T00:24:28;7.20;75.10
17296;DHT22;8766;51.480;6.872;2022-12-07T00:26:55;7.20;75.10
17296;DHT22;8766;51.480;6.872;2022-12-07T00:29:22;7.20;75.10
17296;DHT22;8766;51.480;6.872;2022-12-07T00:31:49;7.20;75.10
17296;DHT22;8766;51.480;6.872;2022-12-07T00:34:19;7.20;75.10
17296;DHT22;8766;51.480;6.872;2022-12-07T00:36:47;7.20;75.10
17296;DHT22;8766;51.480;6.872;2022-12-07T00:39:14;7.20;75.10
17296;DHT22;8766;51.480;6.872;2022-12-07T00:41:40;7.20;75.00
17296;DHT22;8766;51.480;6.872;2022-12-07T00:44:07;7.20;75.00
17296;DHT22;8766;51.480;6.872;2022-12-07T00:46:34;7.20;75.00
17296;DHT22;8766;51.480;6.872;2022-12-07T00:49:01;7.30;75.10
17296;DHT22;8766;51.480;6.872;2022-12-07T00:51:29;7.30;75.10
17296;DHT22;8766;51.480;6.872;2022-12-07T00:53:55;7.20;75.00
17296;DHT22;8766;51.480;6.872;2022-12-07T00:56:24;7.20;75.00
17296;DHT22;8766;51.480;6.872;2022-12-07T00:58:53;7.30;75.10
17296;DHT22;8766;51.480;6.872;2022-12-07T01:01:21;7.30;75.10
17296;DHT22;8766;51.480;6.872;2022-12-07T01:03:48;7.30;75.10
17296;DHT22;8766;51.480;6.872;2022-12-07T01:06:15;7.30;75.10
17296;DHT22;8766;51.480;6.872;2022-12-07T01:08:44;7.30;75.10
17296;DHT22;8766;51.480;6.872;2022-12-07T01:11:14;7.30;75.10
17296;DHT22;8766;51.480;6.872;2022-12-07T01:13:41;7.30;75.10
17296;DHT22;8766;51.480;6.872;2022-12-07T01:16:10;7.30;75.10
17296;DHT22;8766;51.480;6.872;2022-12-07T01:18:37;7.30;75.10
17296;DHT22;8766;51.480;6.872;2022-12-07T01:21:07;7.30;75.10
17296;DHT22;8766;51.480;6.872;2022-12-07T01:23:34;7.30;75.10
17296;DHT22;8766;51.480;6.872;2022-12-07T01:26:05;7.30;75.10
17296;DHT22;8766;51.480;6.872;2022-12-07T01:28:33;7.20;75.10
17296;DHT22;8766;51.480;6.872;2022-12-07T01:31:01;7.20;75.10
17296;DHT22;8766;51.480;6.872;2022-12-07T01:33:29;7.20;75.10
17296;DHT22;8766;51.480;6.872;2022-12-07T01:36:01;7.20;75.10
17296;DHT22;8766;51.480;6.872;2022-12-07T01:38:28;7.20;75.10
17296;DHT22;8766;51.480;6.872;2022-12-07T01:40:55;7.20;75.10
17296;DHT22;8766;51.480;6.872;2022-12-07T01:43:24;7.20;75.10
17296;DHT22;8766;51.480;6.872;2022-12-07T01:45:52;7.20;75.20
17296;DHT22;8766;51.480;6.872;2022-12-07T01:48:22;7.20;75.10
17296;DHT22;8766;51.480;6.872;2022-12-07T01:50:52;7.20;75.20
17296;DHT22;8766;51.480;6.872;2022-12-07T01:53:20;7.20;75.30
17296;DHT22;8766;51.480;6.872;2022-12-07T01:55:49;7.20;75.30
17296;DHT22;8766;51.480;6.872;2022-12-07T01:58:18;7.20;75.30
17296;DHT22;8766;51.480;6.872;2022-12-07T02:00:47;7.20;75.30
17296;DHT22;8766;51.480;6.872;2022-12-07T02:03:18;7.20;75.30
17296;DHT22;8766;51.480;6.872;2022-12-07T02:05:46;7.20;75.40
17296;DHT22;8766;51.480;6.872;2022-12-07T02:08:14;7.10;75.30
17296;DHT22;8766;51.480;6.872;2022-12-07T02:10:41;7.10;75.30
17296;DHT22;8766;51.480;6.872;2022-12-07T02:13:11;7.10;75.30
17296;DHT22;8766;51.480;6.872;2022-12-07T02:15:50;7.10;75.40
17296;DHT22;8766;51.480;6.872;2022-12-07T02:18:23;7.10;75.50
17296;DHT22;8766;51.480;6.872;2022-12-07T02:20:57;7.10;75.50
17296;DHT22;8766;51.480;6.872;2022-12-07T02:23:40;7.10;75.50
17296;DHT22;8766;51.480;6.872;2022-12-07T02:29:17;7.00;75.50
17296;DHT22;8766;51.480;6.872;2022-12-07T02:31:53;7.00;75.50
17296;DHT22;8766;51.480;6.872;2022-12-07T02:34:29;7.00;75.60
17296;DHT22;8766;51.480;6.872;2022-12-07T02:37:01;7.00;75.60
17296;DHT22;8766;51.480;6.872;2022-12-07T02:39:36;7.00;75.70
17296;DHT22;8766;51.480;6.872;2022-12-07T02:42:11;7.00;75.80
17296;DHT22;8766;51.480;6.872;2022-12-07T02:44:40;7.00;75.70
17296;DHT22;8766;51.480;6.872;2022-12-07T02:47:11;7.00;75.70
17296;DHT22;8766;51.480;6.872;2022-12-07T02:49:40;7.00;75.70
17296;DHT22;8766;51.480;6.872;2022-12-07T02:52:07;6.90;75.70
17296;DHT22;8766;51.480;6.872;2022-12-07T02:54:34;6.90;75.70
17296;DHT22;8766;51.480;6.872;2022-12-07T02:57:07;6.90;75.70
17296;DHT22;8766;51.480;6.872;2022-12-07T02:59:52;6.90;75.80
17296;DHT22;8766;51.480;6.872;2022-12-07T03:02:27;6.90;75.90
17296;DHT22;8766;51.480;6.872;2022-12-07T03:05:06;6.90;75.80
17296;DHT22;8766;51.480;6.872;2022-12-07T03:07:42;6.80;75.90
17296;DHT22;8766;51.480;6.872;2022-12-07T03:10:20;6.80;76.00
17296;DHT22;8766;51.480;6.872;2022-12-07T03:13:00;6.80;76.00
17296;DHT22;8766;51.480;6.872;2022-12-07T03:15:33;6.70;76.20
17296;DHT22;8766;51.480;6.872;2022-12-07T03:18:02;6.60;76.20
17296;DHT22;8766;51.480;6.872;2022-12-07T03:20:32;6.60;76.30
17296;DHT22;8766;51.480;6.872;2022-12-07T03:23:00;6.60;76.40
17296;DHT22;8766;51.480;6.872;2022-12-07T03:25:27;6.60;76.40
17296;DHT22;8766;51.480;6.872;2022-12-07T03:27:57;6.60;76.40
17296;DHT22;8766;51.480;6.872;2022-12-07T03:30:28;6.60;76.50
17296;DHT22;8766;51.480;6.872;2022-12-07T03:32:59;6.50;76.50
17296;DHT22;8766;51.480;6.872;2022-12-07T03:35:32;6.50;76.50
17296;DHT22;8766;51.480;6.872;2022-12-07T03:38:02;6.50;76.60
17296;DHT22;8766;51.480;6.872;2022-12-07T03:40:35;6.50;76.60
17296;DHT22;8766;51.480;6.872;2022-12-07T03:43:04;6.40;76.60
17296;DHT22;8766;51.480;6.872;2022-12-07T03:45:37;6.40;76.60
17296;DHT22;8766;51.480;6.872;2022-12-07T03:48:08;6.40;76.70
17296;DHT22;8766;51.480;6.872;2022-12-07T03:50:45;6.40;76.60
17296;DHT22;8766;51.480;6.872;2022-12-07T03:53:18;6.50;76.60
17296;DHT22;8766;51.480;6.872;2022-12-07T03:55:47;6.50;76.60
17296;DHT22;8766;51.480;6.872;2022-12-07T03:58:19;6.50;76.40
17296;DHT22;8766;51.480;6.872;2022-12-07T04:00:47;6.60;76.40
17296;DHT22;8766;51.480;6.872;2022-12-07T04:03:16;6.60;76.30
17296;DHT22;8766;51.480;6.872;2022-12-07T04:05:44;6.60;76.20
17296;DHT22;8766;51.480;6.872;2022-12-07T04:08:11;6.60;76.20
17296;DHT22;8766;51.480;6.872;2022-12-07T04:10:38;6.60;76.20
17296;DHT22;8766;51.480;6.872;2022-12-07T04:13:05;6.60;76.30
17296;DHT22;8766;51.480;6.872;2022-12-07T04:15:32;6.60;76.30
17296;DHT22;8766;51.480;6.872;2022-12-07T04:17:58;6.60;76.40
17296;DHT22;8766;51.480;6.872;2022-12-07T04:20:27;6.60;76.40
17296;DHT22;8766;51.480;6.872;2022-12-07T04:22:53;6.50;76.40
17296;DHT22;8766;51.480;6.872;2022-12-07T04:25:20;6.50;76.40
17296;DHT22;8766;51.480;6.872;2022-12-07T04:27:47;6.50;76.50
17296;DHT22;8766;51.480;6.872;2022-12-07T04:30:14;6.40;76.40
17296;DHT22;8766;51.480;6.872;2022-12-07T04:32:41;6.40;76.60
17296;DHT22;8766;51.480;6.872;2022-12-07T04:35:08;6.30;76.70
17296;DHT22;8766;51.480;6.872;2022-12-07T04:37:36;6.20;76.80
17296;DHT22;8766;51.480;6.872;2022-12-07T04:40:06;6.20;77.00
17296;DHT22;8766;51.480;6.872;2022-12-07T04:42:34;6.10;77.10
17296;DHT22;8766;51.480;6.872;2022-12-07T04:45:00;6.10;77.20
17296;DHT22;8766;51.480;6.872;2022-12-07T04:47:27;6.10;77.30
17296;DHT22;8766;51.480;6.872;2022-12-07T04:49:54;6.10;77.20
17296;DHT22;8766;51.480;6.872;2022-12-07T04:52:21;6.20;77.30
17296;DHT22;8766;51.480;6.872;2022-12-07T04:54:49;6.20;77.20
17296;DHT22;8766;51.480;6.872;2022-12-07T04:57:15;6.20;77.10
17296;DHT22;8766;51.480;6.872;2022-12-07T04:59:42;6.10;77.10
17296;DHT22;8766;51.480;6.872;2022-12-07T05:02:09;6.10;77.10
17296;DHT22;8766;51.480;6.872;2022-12-07T05:04:36;6.10;77.20
17296;DHT22;8766;51.480;6.872;2022-12-07T05:07:02;6.20;77.30
17296;DHT22;8766;51.480;6.872;2022-12-07T05:09:29;6.10;77.10
17296;DHT22;8766;51.480;6.872;2022-12-07T05:11:57;6.20;77.10
17296;DHT22;8766;51.480;6.872;2022-12-07T05:14:24;6.20;77.10
17296;DHT22;8766;51.480;6.872;2022-12-07T05:16:51;6.20;77.00
17296;DHT22;8766;51.480;6.872;2022-12-07T05:19:19;6.20;76.90
17296;DHT22;8766;51.480;6.872;2022-12-07T05:21:47;6.30;77.00
17296;DHT22;8766;51.480;6.872;2022-12-07T05:24:15;6.30;76.90
17296;DHT22;8766;51.480;6.872;2022-12-07T05:26:42;6.30;76.90
17296;DHT22;8766;51.480;6.872;2022-12-07T05:29:12;6.30;76.90
17296;DHT22;8766;51.480;6.872;2022-12-07T05:31:39;6.30;76.90
17296;DHT22;8766;51.480;6.872;2022-12-07T05:34:06;6.30;76.80
17296;DHT22;8766;51.480;6.872;2022-12-07T05:36:33;6.30;76.80
17296;DHT22;8766;51.480;6.872;2022-12-07T05:39:00;6.30;76.70
17296;DHT22;8766;51.480;6.872;2022-12-07T05:41:27;6.30;76.70
17296;DHT22;8766;51.480;6.872;2022-12-07T05:44:15;6.30;76.80
17296;DHT22;8766;51.480;6.872;2022-12-07T05:46:42;6.30;76.80
17296;DHT22;8766;51.480;6.872;2022-12-07T05:49:08;6.30;76.80
17296;DHT22;8766;51.480;6.872;2022-12-07T05:51:35;6.30;77.10
17296;DHT22;8766;51.480;6.872;2022-12-07T05:54:02;6.30;76.80
17296;DHT22;8766;51.480;6.872;2022-12-07T05:56:29;6.30;76.80
17296;DHT22;8766;51.480;6.872;2022-12-07T05:58:56;6.30;76.80
17296;DHT22;8766;51.480;6.872;2022-12-07T06:01:41;6.30;76.80
17296;DHT22;8766;51.480;6.872;2022-12-07T06:04:09;6.30;76.70
17296;DHT22;8766;51.480;6.872;2022-12-07T06:06:35;6.30;76.70
17296;DHT22;8766;51.480;6.872;2022-12-07T06:09:02;6.30;76.80
17296;DHT22;8766;51.480;6.872;2022-12-07T06:11:29;6.20;76.90
17296;DHT22;8766;51.480;6.872;2022-12-07T06:14:13;6.20;77.00
17296;DHT22;8766;51.480;6.872;2022-12-07T06:16:41;6.10;77.00
17296;DHT22;8766;51.480;6.872;2022-12-07T06:19:08;6.10;77.10
17296;DHT22;8766;51.480;6.872;2022-12-07T06:21:35;6.10;77.10
17296;DHT22;8766;51.480;6.872;2022-12-07T06:24:02;6.10;77.10
17296;DHT22;8766;51.480;6.872;2022-12-07T06:26:29;6.20;77.20
17296;DHT22;8766;51.480;6.872;2022-12-07T06:28:56;6.20;77.10
17296;DHT22;8766;51.480;6.872;2022-12-07T06:31:22;6.20;77.00
17296;DHT22;8766;51.480;6.872;2022-12-07T06:33:50;6.20;77.00
17296;DHT22;8766;51.480;6.872;2022-12-07T06:36:17;6.30;77.00
17296;DHT22;8766;51.480;6.872;2022-12-07T06:38:44;6.30;77.50
17296;DHT22;8766;51.480;6.872;2022-12-07T06:41:11;6.30;76.80
17296;DHT22;8766;51.480;6.872;2022-12-07T06:43:37;6.40;76.80
17296;DHT22;8766;51.480;6.872;2022-12-07T06:46:04;6.40;76.70
17296;DHT22;8766;51.480;6.872;2022-12-07T06:48:31;6.40;76.70
17296;DHT22;8766;51.480;6.872;2022-12-07T06:50:59;6.40;76.60
17296;DHT22;8766;51.480;6.872;2022-12-07T06:53:26;6.40;76.60
17296;DHT22;8766;51.480;6.872;2022-12-07T06:55:52;6.30;76.60
17296;DHT22;8766;51.480;6.872;2022-12-07T06:58:19;6.30;76.70
17296;DHT22;8766;51.480;6.872;2022-12-07T07:00:47;6.20;76.90
17296;DHT22;8766;51.480;6.872;2022-12-07T07:03:14;6.20;77.00
17296;DHT22;8766;51.480;6.872;2022-12-07T07:05:41;6.20;77.10
17296;DHT22;8766;51.480;6.872;2022-12-07T07:08:09;6.20;77.20
17296;DHT22;8766;51.480;6.872;2022-12-07T07:10:36;6.20;77.10
17296;DHT22;8766;51.480;6.872;2022-12-07T07:13:03;6.20;77.10
17296;DHT22;8766;51.480;6.872;2022-12-07T07:15:31;6.20;77.10
17296;DHT22;8766;51.480;6.872;2022-12-07T07:17:58;6.20;77.10
17296;DHT22;8766;51.480;6.872;2022-12-07T07:20:25;6.20;77.10
17296;DHT22;8766;51.480;6.872;2022-12-07T07:22:53;6.10;77.10
17296;DHT22;8766;51.480;6.872;2022-12-07T07:25:22;6.10;77.10
17296;DHT22;8766;51.480;6.872;2022-12-07T07:27:48;6.10;77.20
17296;DHT22;8766;51.480;6.872;2022-12-07T07:30:15;6.10;77.20
17296;DHT22;8766;51.480;6.872;2022-12-07T07:32:42;6.20;77.20
17296;DHT22;8766;51.480;6.872;2022-12-07T07:35:09;6.20;77.20
17296;DHT22;8766;51.480;6.872;2022-12-07T07:37:36;6.20;77.10
17296;DHT22;8766;51.480;6.872;2022-12-07T07:40:03;6.20;77.10
17296;DHT22;8766;51.480;6.872;2022-12-07T07:42:31;6.20;77.00
17296;DHT22;8766;51.480;6.872;2022-12-07T07:44:58;6.20;76.90
17296;DHT22;8766;51.480;6.872;2022-12-07T07:47:24;6.30;77.00
17296;DHT22;8766;51.480;6.872;2022-12-07T07:49:51;6.30;77.00
17296;DHT22;8766;51.480;6.872;2022-12-07T07:52:18;6.30;76.90
17296;DHT22;8766;51.480;6.872;2022-12-07T07:54:45;6.30;76.90
17296;DHT22;8766;51.480;6.872;2022-12-07T07:57:11;6.40;76.80
17296;DHT22;8766;51.480;6.872;2022-12-07T07:59:39;6.40;76.70
17296;DHT22;8766;51.480;6.872;2022-12-07T08:02:07;6.50;76.70
17296;DHT22;8766;51.480;6.872;2022-12-07T08:04:36;6.50;76.60
17296;DHT22;8766;51.480;6.872;2022-12-07T08:07:02;6.50;76.50
17296;DHT22;8766;51.480;6.872;2022-12-07T08:09:29;6.60;76.50
17296;DHT22;8766;51.480;6.872;2022-12-07T08:11:56;6.60;76.40
17296;DHT22;8766;51.480;6.872;2022-12-07T08:14:23;6.60;76.20
17296;DHT22;8766;51.480;6.872;2022-12-07T08:16:51;6.70;76.20
17296;DHT22;8766;51.480;6.872;2022-12-07T08:19:18;6.70;76.10
17296;DHT22;8766;51.480;6.872;2022-12-07T08:21:45;6.70;76.10
17296;DHT22;8766;51.480;6.872;2022-12-07T08:24:11;6.70;76.10
17296;DHT22;8766;51.480;6.872;2022-12-07T08:26:38;6.70;76.10
17296;DHT22;8766;51.480;6.872;2022-12-07T08:29:05;6.70;76.10
17296;DHT22;8766;51.480;6.872;2022-12-07T08:31:32;6.70;76.10
17296;DHT22;8766;51.480;6.872;2022-12-07T08:34:00;6.80;76.10
17296;DHT22;8766;51.480;6.872;2022-12-07T08:36:26;6.90;76.10
17296;DHT22;8766;51.480;6.872;2022-12-07T08:38:53;6.70;76.00
17296;DHT22;8766;51.480;6.872;2022-12-07T08:41:20;6.70;76.10
17296;DHT22;8766;51.480;6.872;2022-12-07T08:43:47;6.60;76.20
17296;DHT22;8766;51.480;6.872;2022-12-07T08:46:18;6.60;76.40
17296;DHT22;8766;51.480;6.872;2022-12-07T08:48:50;6.60;76.60
17296;DHT22;8766;51.480;6.872;2022-12-07T08:51:20;6.80;76.70
17296;DHT22;8766;51.480;6.872;2022-12-07T08:53:48;7.10;76.10
17296;DHT22;8766;51.480;6.872;2022-12-07T08:56:15;7.70;75.20
17296;DHT22;8766;51.480;6.872;2022-12-07T08:58:42;8.00;73.90
17296;DHT22;8766;51.480;6.872;2022-12-07T09:01:10;8.10;73.50
17296;DHT22;8766;51.480;6.872;2022-12-07T09:03:36;8.00;73.40
17296;DHT22;8766;51.480;6.872;2022-12-07T09:06:03;7.90;73.80
17296;DHT22;8766;51.480;6.872;2022-12-07T09:08:36;7.70;74.10
17296;DHT22;8766;51.480;6.872;2022-12-07T09:11:05;7.60;74.50
17296;DHT22;8766;51.480;6.872;2022-12-07T09:13:31;7.50;74.70
17296;DHT22;8766;51.480;6.872;2022-12-07T09:15:58;7.60;75.00
17296;DHT22;8766;51.480;6.872;2022-12-07T09:18:25;7.70;74.90
17296;DHT22;8766;51.480;6.872;2022-12-07T09:20:52;8.00;74.80
17296;DHT22;8766;51.480;6.872;2022-12-07T09:23:18;8.20;74.20
17296;DHT22;8766;51.480;6.872;2022-12-07T09:25:46;8.40;73.50
17296;DHT22;8766;51.480;6.872;2022-12-07T09:28:13;8.60;73.00
17296;DHT22;8766;51.480;6.872;2022-12-07T09:30:46;8.70;72.70
17296;DHT22;8766;51.480;6.872;2022-12-07T09:33:13;8.70;72.70
17296;DHT22;8766;51.480;6.872;2022-12-07T09:35:44;8.60;72.80
17296;DHT22;8766;51.480;6.872;2022-12-07T09:38:11;8.50;73.20
17296;DHT22;8766;51.480;6.872;2022-12-07T09:40:39;8.40;73.40
17296;DHT22;8766;51.480;6.872;2022-12-07T09:43:12;8.30;73.60
17296;DHT22;8766;51.480;6.872;2022-12-07T09:45:39;8.20;73.80
17296;DHT22;8766;51.480;6.872;2022-12-07T09:48:16;8.20;74.00
17296;DHT22;8766;51.480;6.872;2022-12-07T09:50:44;8.10;74.00
17296;DHT22;8766;51.480;6.872;2022-12-07T09:53:14;8.20;74.10
17296;DHT22;8766;51.480;6.872;2022-12-07T09:55:42;8.20;74.10
17296;DHT22;8766;51.480;6.872;2022-12-07T09:58:19;8.20;73.90
17296;DHT22;8766;51.480;6.872;2022-12-07T10:00:46;8.20;74.00
17296;DHT22;8766;51.480;6.872;2022-12-07T10:03:13;8.20;73.90
17296;DHT22;8766;51.480;6.872;2022-12-07T10:05:44;8.20;74.00
17296;DHT22;8766;51.480;6.872;2022-12-07T10:08:12;8.20;74.10
17296;DHT22;8766;51.480;6.872;2022-12-07T10:10:41;8.20;74.10
17296;DHT22;8766;51.480;6.872;2022-12-07T10:13:10;8.40;73.80
17296;DHT22;8766;51.480;6.872;2022-12-07T10:15:50;8.60;73.40
17296;DHT22;8766;51.480;6.872;2022-12-07T10:18:26;8.80;72.80
17296;DHT22;8766;51.480;6.872;2022-12-07T10:21:12;8.90;72.50
17296;DHT22;8766;51.480;6.872;2022-12-07T10:23:40;8.90;72.40
17296;DHT22;8766;51.480;6.872;2022-12-07T10:26:26;8.80;72.40
17296;DHT22;8766;51.480;6.872;2022-12-07T10:28:54;8.80;72.60
17296;DHT22;8766;51.480;6.872;2022-12-07T10:31:23;8.80;72.60
17296;DHT22;8766;51.480;6.872;2022-12-07T10:33:52;8.80;72.60
17296;DHT22;8766;51.480;6.872;2022-12-07T10:36:22;8.90;72.60
17296;DHT22;8766;51.480;6.872;2022-12-07T10:38:51;8.90;72.50
17296;DHT22;8766;51.480;6.872;2022-12-07T10:41:18;8.90;72.40
17296;DHT22;8766;51.480;6.872;2022-12-07T10:43:53;8.90;72.40
17296;DHT22;8766;51.480;6.872;2022-12-07T10:46:55;8.80;72.60
17296;DHT22;8766;51.480;6.872;2022-12-07T10:49:54;8.80;72.80
17296;DHT22;8766;51.480;6.872;2022-12-07T10:52:34;8.70;72.80
17296;DHT22;8766;51.480;6.872;2022-12-07T10:55:11;8.60;73.10
17296;DHT22;8766;51.480;6.872;2022-12-07T10:57:49;8.50;73.30
17296;DHT22;8766;51.480;6.872;2022-12-07T11:00:21;8.40;73.40
17296;DHT22;8766;51.480;6.872;2022-12-07T11:03:14;8.40;73.50
17296;DHT22;8766;51.480;6.872;2022-12-07T11:05:50;8.40;73.60
17296;DHT22;8766;51.480;6.872;2022-12-07T11:08:30;8.30;73.60
17296;DHT22;8766;51.480;6.872;2022-12-07T11:11:05;8.30;73.70
17296;DHT22;8766;51.480;6.872;2022-12-07T11:13:39;8.30;73.70
17296;DHT22;8766;51.480;6.872;2022-12-07T11:16:27;8.20;73.80
17296;DHT22;8766;51.480;6.872;2022-12-07T11:19:28;8.20;73.90
17296;DHT22;8766;51.480;6.872;2022-12-07T11:22:02;8.20;73.90
17296;DHT22;8766;51.480;6.872;2022-12-07T11:24:35;8.20;73.90
17296;DHT22;8766;51.480;6.872;2022-12-07T11:27:14;8.20;74.00
17296;DHT22;8766;51.480;6.872;2022-12-07T11:29:52;8.10;73.90
17296;DHT22;8766;51.480;6.872;2022-12-07T11:32:25;8.10;73.90
17296;DHT22;8766;51.480;6.872;2022-12-07T11:35:07;8.10;73.90
17296;DHT22;8766;51.480;6.872;2022-12-07T11:37:37;8.20;73.90
17296;DHT22;8766;51.480;6.872;2022-12-07T11:40:15;8.30;73.70
17296;DHT22;8766;51.480;6.872;2022-12-07T11:42:46;8.40;73.50
17296;DHT22;8766;51.480;6.872;2022-12-07T11:45:20;8.50;73.30
17296;DHT22;8766;51.480;6.872;2022-12-07T11:47:53;8.50;73.00
17296;DHT22;8766;51.480;6.872;2022-12-07T11:50:33;8.60;73.00
17296;DHT22;8766;51.480;6.872;2022-12-07T11:53:03;8.60;73.10
17296;DHT22;8766;51.480;6.872;2022-12-07T11:55:42;8.60;73.10
17296;DHT22;8766;51.480;6.872;2022-12-07T11:58:20;8.50;73.00
17296;DHT22;8766;51.480;6.872;2022-12-07T12:00:49;8.50;73.10
17296;DHT22;8766;51.480;6.872;2022-12-07T12:03:23;8.50;73.10
17296;DHT22;8766;51.480;6.872;2022-12-07T12:05:56;8.50;73.20
17296;DHT22;8766;51.480;6.872;2022-12-07T12:08:27;8.50;73.20
17296;DHT22;8766;51.480;6.872;2022-12-07T12:11:02;8.50;73.30
17296;DHT22;8766;51.480;6.872;2022-12-07T12:13:47;8.50;74.00
17296;DHT22;8766;51.480;6.872;2022-12-07T12:16:37;8.40;73.40
17296;DHT22;8766;51.480;6.872;2022-12-07T12:19:19;8.40;73.40
17296;DHT22;8766;51.480;6.872;2022-12-07T12:21:55;8.40;73.50
17296;DHT22;8766;51.480;6.872;2022-12-07T12:24:24;8.30;73.50
17296;DHT22;8766;51.480;6.872;2022-12-07T12:26:54;8.30;73.60
17296;DHT22;8766;51.480;6.872;2022-12-07T12:29:27;8.30;73.60
17296;DHT22;8766;51.480;6.872;2022-12-07T12:32:07;8.30;73.60
17296;DHT22;8766;51.480;6.872;2022-12-07T12:34:40;8.40;73.70
17296;DHT22;8766;51.480;6.872;2022-12-07T12:37:45;8.30;73.60
17296;DHT22;8766;51.480;6.872;2022-12-07T12:43:44;8.40;73.60
17296;DHT22;8766;51.480;6.872;2022-12-07T12:46:51;8.40;73.60
17296;DHT22;8766;51.480;6.872;2022-12-07T12:49:42;8.40;73.60
17296;DHT22;8766;51.480;6.872;2022-12-07T12:55:15;8.30;73.50
17296;DHT22;8766;51.480;6.872;2022-12-07T12:57:45;8.30;73.60
17296;DHT22;8766;51.480;6.872;2022-12-07T13:00:17;8.40;73.60
17296;DHT22;8766;51.480;6.872;2022-12-07T13:02:49;8.30;73.70
17296;DHT22;8766;51.480;6.872;2022-12-07T13:05:18;8.20;73.70
17296;DHT22;8766;51.480;6.872;2022-12-07T13:07:54;8.20;73.70
17296;DHT22;8766;51.480;6.872;2022-12-07T13:10:41;8.20;73.80
17296;DHT22;8766;51.480;6.872;2022-12-07T13:13:33;8.30;73.70
17296;DHT22;8766;51.480;6.872;2022-12-07T13:16:37;8.30;73.70
17296;DHT22;8766;51.480;6.872;2022-12-07T13:22:40;8.20;73.70
17296;DHT22;8766;51.480;6.872;2022-12-07T13:25:11;8.20;73.70
17296;DHT22;8766;51.480;6.872;2022-12-07T13:27:41;8.20;73.70
17296;DHT22;8766;51.480;6.872;2022-12-07T13:30:14;8.20;73.70
17296;DHT22;8766;51.480;6.872;2022-12-07T13:32:42;8.20;73.80
17296;DHT22;8766;51.480;6.872;2022-12-07T13:35:28;8.20;73.90
17296;DHT22;8766;51.480;6.872;2022-12-07T13:37:55;8.10;73.90
17296;DHT22;8766;51.480;6.872;2022-12-07T13:40:23;8.10;74.60
17296;DHT22;8766;51.480;6.872;2022-12-07T13:42:58;8.10;74.00
17296;DHT22;8766;51.480;6.872;2022-12-07T13:45:27;8.10;74.10
17296;DHT22;8766;51.480;6.872;2022-12-07T13:48:16;8.00;74.10
17296;DHT22;8766;51.480;6.872;2022-12-07T13:50:53;8.00;74.30
17296;DHT22;8766;51.480;6.872;2022-12-07T13:53:20;7.90;74.40
17296;DHT22;8766;51.480;6.872;2022-12-07T13:55:47;7.90;74.50
17296;DHT22;8766;51.480;6.872;2022-12-07T13:58:16;7.90;74.60
17296;DHT22;8766;51.480;6.872;2022-12-07T14:00:43;7.90;74.60
17296;DHT22;8766;51.480;6.872;2022-12-07T14:03:34;7.90;74.70
17296;DHT22;8766;51.480;6.872;2022-12-07T14:06:13;7.90;74.60
17296;DHT22;8766;51.480;6.872;2022-12-07T14:08:40;7.80;74.60
17296;DHT22;8766;51.480;6.872;2022-12-07T14:11:11;7.80;74.60
17296;DHT22;8766;51.480;6.872;2022-12-07T14:13:45;7.80;74.70
17296;DHT22;8766;51.480;6.872;2022-12-07T14:16:24;7.70;74.80
17296;DHT22;8766;51.480;6.872;2022-12-07T14:18:53;7.70;74.90
17296;DHT22;8766;51.480;6.872;2022-12-07T14:21:21;7.70;74.90
17296;DHT22;8766;51.480;6.872;2022-12-07T14:24:14;7.60;75.00
17296;DHT22;8766;51.480;6.872;2022-12-07T14:26:43;7.60;75.20
17296;DHT22;8766;51.480;6.872;2022-12-07T14:29:27;7.50;75.10
17296;DHT22;8766;51.480;6.872;2022-12-07T14:31:57;7.50;75.30
17296;DHT22;8766;51.480;6.872;2022-12-07T14:34:25;7.40;75.30
17296;DHT22;8766;51.480;6.872;2022-12-07T14:36:51;7.40;75.40
17296;DHT22;8766;51.480;6.872;2022-12-07T14:39:18;7.40;75.50
17296;DHT22;8766;51.480;6.872;2022-12-07T14:41:45;7.30;75.60
17296;DHT22;8766;51.480;6.872;2022-12-07T14:44:23;7.30;75.70
17296;DHT22;8766;51.480;6.872;2022-12-07T14:46:50;7.20;75.80
17296;DHT22;8766;51.480;6.872;2022-12-07T14:49:18;7.20;75.90
17296;DHT22;8766;51.480;6.872;2022-12-07T14:51:46;7.10;75.90
17296;DHT22;8766;51.480;6.872;2022-12-07T14:54:16;7.10;76.00
17296;DHT22;8766;51.480;6.872;2022-12-07T14:56:43;7.10;76.70
17296;DHT22;8766;51.480;6.872;2022-12-07T14:59:11;7.00;76.10
17296;DHT22;8766;51.480;6.872;2022-12-07T15:01:39;7.00;76.20
17296;DHT22;8766;51.480;6.872;2022-12-07T15:04:06;7.10;76.30
17296;DHT22;8766;51.480;6.872;2022-12-07T15:06:33;7.00;76.30
17296;DHT22;8766;51.480;6.872;2022-12-07T15:09:01;6.90;76.30
17296;DHT22;8766;51.480;6.872;2022-12-07T15:11:27;6.90;76.40
17296;DHT22;8766;51.480;6.872;2022-12-07T15:13:54;6.90;76.40
17296;DHT22;8766;51.480;6.872;2022-12-07T15:16:41;6.90;76.40
17296;DHT22;8766;51.480;6.872;2022-12-07T15:19:12;6.80;76.40
17296;DHT22;8766;51.480;6.872;2022-12-07T15:21:39;6.80;76.40
17296;DHT22;8766;51.480;6.872;2022-12-07T15:24:07;6.80;76.50
17296;DHT22;8766;51.480;6.872;2022-12-07T15:26:34;6.80;76.50
17296;DHT22;8766;51.480;6.872;2022-12-07T15:29:01;6.80;76.50
17296;DHT22;8766;51.480;6.872;2022-12-07T15:31:28;6.80;76.40
17296;DHT22;8766;51.480;6.872;2022-12-07T15:33:56;6.90;76.40
17296;DHT22;8766;51.480;6.872;2022-12-07T15:36:24;6.90;76.40
17296;DHT22;8766;51.480;6.872;2022-12-07T15:38:51;6.90;76.30
17296;DHT22;8766;51.480;6.872;2022-12-07T15:41:18;7.00;76.20
17296;DHT22;8766;51.480;6.872;2022-12-07T15:43:45;7.00;76.10
17296;DHT22;8766;51.480;6.872;2022-12-07T15:46:30;7.00;76.10
17296;DHT22;8766;51.480;6.872;2022-12-07T15:48:59;7.00;76.00
17296;DHT22;8766;51.480;6.872;2022-12-07T15:51:26;7.00;76.00
17296;DHT22;8766;51.480;6.872;2022-12-07T15:53:53;6.90;76.00
17296;DHT22;8766;51.480;6.872;2022-12-07T15:56:20;6.90;76.00
17296;DHT22;8766;51.480;6.872;2022-12-07T15:58:47;6.90;76.00
17296;DHT22;8766;51.480;6.872;2022-12-07T16:01:15;7.00;76.10
17296;DHT22;8766;51.480;6.872;2022-12-07T16:03:42;7.00;76.10
17296;DHT22;8766;51.480;6.872;2022-12-07T16:06:11;7.00;76.00
17296;DHT22;8766;51.480;6.872;2022-12-07T16:08:42;7.00;76.00
17296;DHT22;8766;51.480;6.872;2022-12-07T16:11:09;7.00;75.90
17296;DHT22;8766;51.480;6.872;2022-12-07T16:13:35;7.00;75.90
17296;DHT22;8766;51.480;6.872;2022-12-07T16:16:03;7.00;75.90
17296;DHT22;8766;51.480;6.872;2022-12-07T16:18:30;7.00;75.90
17296;DHT22;8766;51.480;6.872;2022-12-07T16:20:57;7.00;76.20
17296;DHT22;8766;51.480;6.872;2022-12-07T16:23:26;7.00;75.80
17296;DHT22;8766;51.480;6.872;2022-12-07T16:25:53;7.00;75.90
17296;DHT22;8766;51.480;6.872;2022-12-07T16:28:20;7.00;75.80
17296;DHT22;8766;51.480;6.872;2022-12-07T16:30:47;7.00;75.80
17296;DHT22;8766;51.480;6.872;2022-12-07T16:33:14;7.00;75.80
17296;DHT22;8766;51.480;6.872;2022-12-07T16:35:40;7.00;75.80